createdAt,value
2023-04-15T00:01:36.517Z,9.91
2023-04-15T00:04:00.378Z,9.89
2023-04-15T00:06:24.197Z,9.89
2023-04-15T00:08:48.171Z,9.91
2023-04-15T00:11:11.947Z,9.90
2023-04-15T00:13:35.469Z,9.89
2023-04-15T00:15:59.040Z,9.88
2023-04-15T00:18:23.492Z,9.89
2023-04-15T00:20:47.153Z,9.87
2023-04-15T00:23:10.674Z,9.88
2023-04-15T00:25:34.401Z,9.87
2023-04-15T00:27:58.334Z,9.83
2023-04-15T00:30:23.224Z,9.79
2023-04-15T00:32:46.832Z,9.74
2023-04-15T00:35:11.629Z,9.66
2023-04-15T00:37:36.252Z,9.59
2023-04-15T00:39:59.953Z,9.53
2023-04-15T00:42:24.648Z,9.49
2023-04-15T00:44:48.106Z,9.47
2023-04-15T00:47:12.484Z,9.45
2023-04-15T00:49:35.963Z,9.41
2023-04-15T00:51:59.632Z,9.37
2023-04-15T00:54:23.856Z,9.38
2023-04-15T00:56:56.079Z,9.37
2023-04-15T00:59:23.020Z,9.36
2023-04-15T01:01:47.891Z,9.31
2023-04-15T01:04:12.567Z,9.28
2023-04-15T01:06:36.352Z,9.27
2023-04-15T01:09:02.741Z,9.26
2023-04-15T01:11:27.707Z,9.25
2023-04-15T01:13:52.094Z,9.26
2023-04-15T01:16:16.840Z,9.26
2023-04-15T01:18:41.033Z,9.28
2023-04-15T01:21:06.363Z,9.27
2023-04-15T01:23:36.287Z,9.27
2023-04-15T01:26:21.676Z,9.25
2023-04-15T01:28:56.882Z,9.25
2023-04-15T01:31:21.383Z,9.22
2023-04-15T01:33:46.496Z,9.21
2023-04-15T01:36:13.991Z,9.18
2023-04-15T01:38:39.697Z,9.16
2023-04-15T01:41:04.254Z,9.13
2023-04-15T01:43:30.188Z,9.10
2023-04-15T01:45:53.729Z,9.06
2023-04-15T01:48:18.237Z,9.02
2023-04-15T01:50:42.123Z,8.99
2023-04-15T01:53:09.116Z,8.97
2023-04-15T01:55:45.203Z,8.95
2023-04-15T01:58:11.765Z,8.91
2023-04-15T02:00:35.189Z,8.87
2023-04-15T02:03:01.834Z,8.83
2023-04-15T02:05:45.811Z,8.79
2023-04-15T02:08:20.634Z,8.73
2023-04-15T02:10:47.601Z,8.70
2023-04-15T02:13:14.347Z,8.66
2023-04-15T02:15:37.983Z,8.61
2023-04-15T02:18:11.006Z,8.59
2023-04-15T02:20:35.805Z,8.56
2023-04-15T02:22:59.685Z,8.53
2023-04-15T02:25:23.312Z,8.53
2023-04-15T02:27:46.904Z,8.52
2023-04-15T02:30:11.368Z,8.52
2023-04-15T02:32:34.946Z,8.52
2023-04-15T02:35:03.486Z,8.51
2023-04-15T02:37:31.504Z,8.52
2023-04-15T02:39:54.949Z,8.51
2023-04-15T02:42:20.954Z,8.51
2023-04-15T02:44:44.948Z,8.49
2023-04-15T02:47:10.079Z,8.50
2023-04-15T02:49:33.448Z,8.50
2023-04-15T02:51:57.730Z,8.52
2023-04-15T02:54:22.306Z,8.53
2023-04-15T02:56:49.387Z,8.54
2023-04-15T02:59:13.324Z,8.56
2023-04-15T03:01:36.793Z,8.57
2023-04-15T03:04:00.545Z,8.58
2023-04-15T03:06:24.413Z,8.58
2023-04-15T03:08:47.919Z,8.60
2023-04-15T03:11:12.276Z,8.61
2023-04-15T03:13:35.783Z,8.62
2023-04-15T03:16:07.406Z,8.62
2023-04-15T03:18:31.575Z,8.61
2023-04-15T03:20:57.326Z,8.62
2023-04-15T03:23:21.151Z,8.63
2023-04-15T03:25:46.262Z,8.64
2023-04-15T03:28:11.604Z,8.65
2023-04-15T03:30:35.438Z,8.66
2023-04-15T03:32:58.884Z,8.67
2023-04-15T03:35:25.832Z,8.67
2023-04-15T03:37:49.508Z,8.67
2023-04-15T03:40:15.229Z,8.68
2023-04-15T03:42:39.006Z,8.68
2023-04-15T03:45:02.913Z,8.67
2023-04-15T03:47:26.568Z,8.68
2023-04-15T03:50:03.680Z,8.69
2023-04-15T03:52:27.176Z,8.69
2023-04-15T03:54:50.881Z,8.69
2023-04-15T03:57:14.391Z,8.70
2023-04-15T03:59:37.811Z,8.70
2023-04-15T04:02:01.556Z,8.72
2023-04-15T04:04:27.857Z,8.73
2023-04-15T04:06:51.455Z,8.75
2023-04-15T04:09:15.030Z,8.76
2023-04-15T04:11:38.490Z,8.77
2023-04-15T04:14:02.124Z,8.77
2023-04-15T04:16:28.518Z,8.77
2023-04-15T04:18:52.254Z,8.77
2023-04-15T04:21:16.029Z,8.76
2023-04-15T04:23:39.494Z,8.75
2023-04-15T04:26:03.160Z,8.74
2023-04-15T04:28:26.933Z,8.73
2023-04-15T04:30:50.515Z,8.73
2023-04-15T04:33:13.912Z,8.72
2023-04-15T04:35:57.693Z,8.70
2023-04-15T04:38:21.372Z,8.68
2023-04-15T04:40:47.429Z,8.67
2023-04-15T04:43:11.182Z,8.65
2023-04-15T04:45:37.766Z,8.64
2023-04-15T04:48:21.225Z,8.64
2023-04-15T04:50:46.635Z,8.63
2023-04-15T04:53:13.017Z,8.62
2023-04-15T04:55:36.740Z,8.61
2023-04-15T04:58:00.817Z,8.61
2023-04-15T05:00:24.795Z,8.61
2023-04-15T05:02:48.597Z,8.61
2023-04-15T05:05:13.069Z,8.62
2023-04-15T05:07:36.569Z,8.61
2023-04-15T05:09:59.981Z,8.62
2023-04-15T05:12:23.408Z,8.63
2023-04-15T05:14:49.882Z,8.65
2023-04-15T05:17:13.586Z,8.63
2023-04-15T05:19:37.237Z,8.64
2023-04-15T05:22:05.665Z,8.64
2023-04-15T05:24:29.404Z,8.62
2023-04-15T05:26:53.036Z,8.63
2023-04-15T05:29:16.703Z,8.64
2023-04-15T05:31:40.422Z,8.65
2023-04-15T05:34:05.147Z,8.65
2023-04-15T05:36:28.854Z,8.64
2023-04-15T05:38:52.303Z,8.65
2023-04-15T05:41:19.610Z,8.66
2023-04-15T05:43:43.628Z,8.67
2023-04-15T05:46:08.158Z,8.68
2023-04-15T05:48:31.576Z,8.68
2023-04-15T05:50:58.123Z,8.67
2023-04-15T05:53:21.819Z,8.67
2023-04-15T05:55:45.536Z,8.66
2023-04-15T05:58:08.976Z,8.67
2023-04-15T06:00:33.208Z,8.67
2023-04-15T06:02:59.384Z,8.67
2023-04-15T06:05:23.662Z,8.67
2023-04-15T06:07:48.601Z,8.66
2023-04-15T06:10:12.693Z,8.67
2023-04-15T06:12:36.153Z,8.66
2023-04-15T06:15:00.241Z,8.64
2023-04-15T06:17:24.979Z,8.64
2023-04-15T06:19:49.816Z,8.62
2023-04-15T06:22:13.408Z,8.64
2023-04-15T06:24:37.207Z,8.64
2023-04-15T06:27:09.483Z,8.62
2023-04-15T06:29:33.056Z,8.62
2023-04-15T06:32:04.043Z,8.61
2023-04-15T06:34:27.608Z,8.62
2023-04-15T06:36:51.220Z,8.63
2023-04-15T06:39:15.141Z,8.65
2023-04-15T06:41:38.632Z,8.64
2023-04-15T06:44:02.210Z,8.65
2023-04-15T06:46:26.318Z,8.65
2023-04-15T06:48:50.502Z,8.67
2023-04-15T06:51:14.037Z,8.66
2023-04-15T06:53:40.418Z,8.66
2023-04-15T06:56:02.968Z,8.66
2023-04-15T06:58:26.432Z,8.66
2023-04-15T07:00:50.630Z,8.64
2023-04-15T07:03:14.523Z,8.64
2023-04-15T07:05:38.187Z,8.66
2023-04-15T07:08:04.626Z,8.67
2023-04-15T07:10:31.238Z,8.69
2023-04-15T07:12:55.020Z,8.70
2023-04-15T07:15:18.405Z,8.70
2023-04-15T07:17:42.589Z,8.69
2023-04-15T07:20:08.547Z,8.70
2023-04-15T07:22:32.728Z,8.71
2023-04-15T07:24:56.086Z,8.70
2023-04-15T07:27:19.676Z,8.69
2023-04-15T07:29:43.368Z,8.71
2023-04-15T07:32:07.369Z,8.72
2023-04-15T07:34:33.901Z,8.75
2023-04-15T07:36:57.606Z,8.77
2023-04-15T07:39:21.700Z,8.76
2023-04-15T07:41:45.977Z,8.75
2023-04-15T07:44:09.938Z,8.78
2023-04-15T07:46:33.613Z,8.75
2023-04-15T07:48:59.500Z,8.77
2023-04-15T07:51:32.328Z,8.79
2023-04-15T07:53:56.013Z,8.87
2023-04-15T07:56:19.790Z,8.91
2023-04-15T07:58:43.179Z,8.92
2023-04-15T08:01:07.207Z,8.91
2023-04-15T08:03:42.576Z,8.91
2023-04-15T08:06:06.660Z,8.91
2023-04-15T08:08:50.170Z,8.92
2023-04-15T08:11:13.782Z,8.91
2023-04-15T08:13:37.282Z,8.90
2023-04-15T08:16:19.911Z,8.89
2023-04-15T08:18:48.852Z,8.86
2023-04-15T08:21:33.321Z,8.85
2023-04-15T08:23:57.157Z,8.85
2023-04-15T08:26:21.518Z,8.86
2023-04-15T08:29:02.102Z,8.88
2023-04-15T08:31:29.157Z,8.90
2023-04-15T08:33:58.839Z,8.94
2023-04-15T08:36:26.948Z,8.96
2023-04-15T08:38:52.711Z,9.00
2023-04-15T08:41:23.090Z,9.03
2023-04-15T08:43:54.418Z,9.05
2023-04-15T08:46:34.111Z,9.07
2023-04-15T08:48:59.090Z,9.09
2023-04-15T08:51:23.891Z,9.13
2023-04-15T08:54:10.332Z,9.15
2023-04-15T08:56:54.354Z,9.19
2023-04-15T08:59:21.371Z,9.19
2023-04-15T09:01:45.379Z,9.20
2023-04-15T09:04:20.784Z,9.23
2023-04-15T09:06:56.647Z,9.27
2023-04-15T09:09:20.300Z,9.31
2023-04-15T09:11:47.001Z,9.33
2023-04-15T09:14:11.642Z,9.39
2023-04-15T09:16:59.205Z,9.43
2023-04-15T09:19:33.966Z,9.48
2023-04-15T09:21:59.290Z,9.48
2023-04-15T09:24:23.521Z,9.45
2023-04-15T09:27:07.970Z,9.48
2023-04-15T09:29:42.236Z,9.47
2023-04-15T09:32:13.481Z,9.46
2023-04-15T09:34:57.351Z,9.48
2023-04-15T09:37:36.051Z,9.47
2023-04-15T09:40:00.058Z,9.46
2023-04-15T09:42:33.080Z,9.46
2023-04-15T09:45:16.903Z,9.47
2023-04-15T09:47:50.951Z,9.47
2023-04-15T09:50:14.957Z,9.50
2023-04-15T09:52:43.333Z,9.52
2023-04-15T09:55:10.057Z,9.53
2023-04-15T09:57:55.941Z,9.53
2023-04-15T10:00:22.320Z,9.55
2023-04-15T10:02:49.289Z,9.55
2023-04-15T10:05:16.420Z,9.56
2023-04-15T10:07:40.829Z,9.58
2023-04-15T10:10:25.181Z,9.61
2023-04-15T10:13:10.611Z,9.67
2023-04-15T10:15:35.934Z,9.73
2023-04-15T10:18:10.132Z,9.75
2023-04-15T10:20:55.065Z,9.73
2023-04-15T10:23:28.583Z,9.75
2023-04-15T10:26:00.518Z,9.74
2023-04-15T10:28:24.526Z,9.75
2023-04-15T10:30:49.640Z,9.78
2023-04-15T10:33:24.465Z,9.79
2023-04-15T10:36:08.065Z,9.82
2023-04-15T10:38:42.879Z,9.87
2023-04-15T10:41:30.478Z,9.93
2023-04-15T10:44:05.812Z,9.93
2023-04-15T10:46:40.778Z,9.92
2023-04-15T10:49:10.453Z,9.92
2023-04-15T10:51:58.814Z,9.90
2023-04-15T10:54:33.114Z,9.90
2023-04-15T10:57:09.138Z,9.90
2023-04-15T10:59:33.432Z,9.91
2023-04-15T11:02:02.432Z,9.93
2023-04-15T11:04:55.293Z,9.95
2023-04-15T11:07:40.588Z,9.93
2023-04-15T11:10:25.274Z,9.90
2023-04-15T11:13:17.156Z,9.88
2023-04-15T11:16:02.392Z,9.89
2023-04-15T11:18:55.386Z,9.91
2023-04-15T11:21:19.674Z,9.95
2023-04-15T11:23:50.728Z,9.97
2023-04-15T11:26:16.860Z,10.01
2023-04-15T11:28:50.451Z,10.04
2023-04-15T11:31:29.104Z,9.99
2023-04-15T11:33:58.449Z,9.96
2023-04-15T11:36:29.194Z,9.89
2023-04-15T11:39:06.852Z,9.86
2023-04-15T11:41:30.556Z,9.85
2023-04-15T11:43:56.198Z,9.84
2023-04-15T11:46:21.378Z,9.83
2023-04-15T11:48:46.321Z,9.83
2023-04-15T11:51:09.996Z,9.83
2023-04-15T11:53:41.509Z,9.83
2023-04-15T11:56:26.816Z,9.81
2023-04-15T11:59:10.915Z,9.79
2023-04-15T12:01:35.787Z,9.77
2023-04-15T12:04:14.170Z,9.78
2023-04-15T12:07:06.199Z,9.88
2023-04-15T12:09:39.391Z,10.05
2023-04-15T12:12:26.568Z,10.24
2023-04-15T12:14:59.388Z,10.41
2023-04-15T12:17:50.997Z,10.55
2023-04-15T12:20:26.446Z,10.62
2023-04-15T12:22:50.108Z,10.64
2023-04-15T12:25:14.208Z,10.63
2023-04-15T12:27:37.854Z,10.67
2023-04-15T12:30:07.338Z,10.64
2023-04-15T12:32:42.171Z,10.58
2023-04-15T12:35:08.589Z,10.52
2023-04-15T12:37:32.174Z,10.47
2023-04-15T12:39:55.748Z,10.43
2023-04-15T12:42:40.092Z,10.38
2023-04-15T12:45:20.971Z,10.31
2023-04-15T12:47:56.381Z,10.33
2023-04-15T12:50:20.157Z,10.36
2023-04-15T12:53:03.180Z,10.43
2023-04-15T12:55:36.323Z,10.50
2023-04-15T12:58:03.151Z,10.63
2023-04-15T13:00:33.368Z,10.74
2023-04-15T13:03:17.558Z,10.87
2023-04-15T13:05:41.175Z,10.97
2023-04-15T13:08:25.855Z,11.01
2023-04-15T13:10:59.707Z,10.99
2023-04-15T13:13:34.390Z,11.03
2023-04-15T13:15:58.378Z,11.12
2023-04-15T13:18:45.288Z,11.29
2023-04-15T13:21:29.166Z,11.40
2023-04-15T13:24:13.315Z,11.50
2023-04-15T13:26:50.526Z,11.58
2023-04-15T13:29:23.054Z,11.62
2023-04-15T13:31:58.110Z,11.65
2023-04-15T13:34:31.111Z,11.65
2023-04-15T13:37:13.399Z,11.63
2023-04-15T13:39:37.129Z,11.59
2023-04-15T13:42:08.477Z,11.51
2023-04-15T13:44:52.922Z,11.41
2023-04-15T13:47:24.013Z,11.34
2023-04-15T13:49:59.060Z,11.31
2023-04-15T13:52:30.506Z,11.29
2023-04-15T13:55:07.249Z,11.26
2023-04-15T13:57:37.873Z,11.25
2023-04-15T14:00:01.663Z,11.17
2023-04-15T14:02:25.410Z,11.09
2023-04-15T14:04:50.717Z,11.02
2023-04-15T14:07:23.897Z,10.97
2023-04-15T14:10:09.631Z,10.92
2023-04-15T14:12:53.506Z,10.94
2023-04-15T14:15:37.383Z,10.94
2023-04-15T14:18:21.418Z,10.89
2023-04-15T14:20:45.179Z,10.85
2023-04-15T14:23:11.312Z,10.81
2023-04-15T14:25:55.264Z,10.85
2023-04-15T14:28:39.497Z,10.96
2023-04-15T14:31:23.409Z,11.11
2023-04-15T14:33:50.080Z,11.18
2023-04-15T14:36:13.538Z,11.22
2023-04-15T14:38:39.144Z,11.25
2023-04-15T14:41:02.716Z,11.31
2023-04-15T14:43:32.575Z,11.35
2023-04-15T14:45:59.811Z,11.40
2023-04-15T14:48:26.261Z,11.45
2023-04-15T14:50:53.216Z,11.48
2023-04-15T14:53:16.791Z,11.49
2023-04-15T14:55:40.614Z,11.48
2023-04-15T14:58:08.692Z,11.46
2023-04-15T15:00:32.290Z,11.47
2023-04-15T15:02:55.879Z,11.50
2023-04-15T15:05:23.074Z,11.52
2023-04-15T15:07:46.738Z,11.55
2023-04-15T15:10:13.401Z,11.51
2023-04-15T15:12:36.944Z,11.46
2023-04-15T15:15:04.896Z,11.41
2023-04-15T15:17:33.098Z,11.37
2023-04-15T15:19:59.670Z,11.29
2023-04-15T15:22:23.400Z,11.20
2023-04-15T15:24:47.060Z,11.13
2023-04-15T15:27:10.806Z,11.07
2023-04-15T15:29:38.321Z,11.02
2023-04-15T15:32:05.419Z,10.99
2023-04-15T15:34:28.894Z,11.00
2023-04-15T15:36:52.727Z,11.00
2023-04-15T15:39:28.440Z,11.02
2023-04-15T15:41:52.210Z,11.03
2023-04-15T15:44:18.920Z,11.00
2023-04-15T15:46:42.514Z,10.97
2023-04-15T15:49:27.679Z,10.92
2023-04-15T15:51:51.272Z,10.90
2023-04-15T15:54:15.030Z,10.87
2023-04-15T15:56:39.088Z,10.86
2023-04-15T15:59:04.518Z,10.84
2023-04-15T16:01:30.931Z,10.80
2023-04-15T16:03:55.040Z,10.76
2023-04-15T16:06:18.678Z,10.73
2023-04-15T16:08:42.473Z,10.68
2023-04-15T16:11:06.502Z,10.66
2023-04-15T16:13:29.938Z,10.63
2023-04-15T16:15:53.453Z,10.59
2023-04-15T16:18:20.321Z,10.55
2023-04-15T16:20:46.993Z,10.52
2023-04-15T16:23:15.048Z,10.50
2023-04-15T16:25:44.065Z,10.48
2023-04-15T16:28:18.562Z,10.47
2023-04-15T16:30:49.236Z,10.44
2023-04-15T16:33:12.825Z,10.44
2023-04-15T16:35:56.588Z,10.46
2023-04-15T16:38:20.252Z,10.45
2023-04-15T16:40:43.857Z,10.44
2023-04-15T16:43:10.658Z,10.40
2023-04-15T16:45:36.590Z,10.35
2023-04-15T16:48:00.400Z,10.32
2023-04-15T16:50:27.792Z,10.27
2023-04-15T16:52:55.154Z,10.23
2023-04-15T16:55:40.216Z,10.18
2023-04-15T16:58:08.411Z,10.15
2023-04-15T17:00:32.397Z,10.12
2023-04-15T17:02:59.962Z,10.10
2023-04-15T17:05:23.979Z,10.08
2023-04-15T17:07:47.775Z,10.06
2023-04-15T17:10:13.670Z,10.02
2023-04-15T17:12:58.996Z,9.98
2023-04-15T17:15:25.960Z,9.94
2023-04-15T17:18:01.372Z,9.89
2023-04-15T17:20:25.904Z,9.87
2023-04-15T17:23:09.900Z,9.84
2023-04-15T17:25:42.477Z,9.82
2023-04-15T17:28:06.486Z,9.80
2023-04-15T17:30:32.926Z,9.78
2023-04-15T17:33:02.328Z,9.76
2023-04-15T17:35:26.162Z,9.74
2023-04-15T17:37:59.277Z,9.71
2023-04-15T17:40:22.809Z,9.69
2023-04-15T17:43:00.718Z,9.67
2023-04-15T17:45:27.050Z,9.63
2023-04-15T17:48:03.219Z,9.60
2023-04-15T17:50:27.184Z,9.55
2023-04-15T17:53:00.074Z,9.52
2023-04-15T17:55:44.118Z,9.49
2023-04-15T17:58:07.904Z,9.46
2023-04-15T18:00:40.463Z,9.43
2023-04-15T18:03:09.214Z,9.38
2023-04-15T18:05:55.354Z,9.36
2023-04-15T18:08:22.189Z,9.35
2023-04-15T18:10:45.569Z,9.36
2023-04-15T18:13:09.343Z,9.35
2023-04-15T18:15:33.206Z,9.33
2023-04-15T18:17:57.019Z,9.31
2023-04-15T18:20:21.351Z,9.29
2023-04-15T18:22:45.000Z,9.26
2023-04-15T18:25:19.126Z,9.23
2023-04-15T18:27:46.424Z,9.23
2023-04-15T18:30:23.804Z,9.21
2023-04-15T18:32:47.705Z,9.20
2023-04-15T18:35:22.247Z,9.18
2023-04-15T18:37:46.192Z,9.17
2023-04-15T18:40:20.386Z,9.17
2023-04-15T18:42:51.920Z,9.16
2023-04-15T18:45:15.642Z,9.17
2023-04-15T18:47:42.523Z,9.15
2023-04-15T18:50:26.681Z,9.15
2023-04-15T18:53:10.829Z,9.15
2023-04-15T18:55:34.913Z,9.14
2023-04-15T18:58:19.317Z,9.16
2023-04-15T19:00:45.525Z,9.15
2023-04-15T19:03:12.254Z,9.15
2023-04-15T19:05:56.712Z,9.14
2023-04-15T19:08:22.927Z,9.13
2023-04-15T19:11:06.867Z,9.12
2023-04-15T19:13:32.905Z,9.08
2023-04-15T19:16:04.523Z,9.06
2023-04-15T19:18:28.306Z,9.02
2023-04-15T19:21:12.954Z,9.00
2023-04-15T19:23:47.930Z,8.97
2023-04-15T19:26:31.653Z,8.94
2023-04-15T19:29:15.794Z,8.91
2023-04-15T19:31:39.479Z,8.89
2023-04-15T19:34:24.736Z,8.88
2023-04-15T19:36:48.433Z,8.88
2023-04-15T19:39:33.224Z,8.89
2023-04-15T19:42:05.624Z,8.89
2023-04-15T19:44:49.829Z,8.87
2023-04-15T19:47:24.227Z,8.84
2023-04-15T19:50:11.240Z,8.83
2023-04-15T19:52:54.949Z,8.83
2023-04-15T19:55:19.113Z,8.81
2023-04-15T19:57:42.706Z,8.81
2023-04-15T20:00:11.400Z,8.81
2023-04-15T20:02:56.207Z,8.80
2023-04-15T20:05:22.749Z,8.76
2023-04-15T20:07:48.154Z,8.74
2023-04-15T20:10:12.822Z,8.71
2023-04-15T20:12:50.299Z,8.67
2023-04-15T20:15:30.504Z,8.66
2023-04-15T20:17:54.401Z,8.62
2023-04-15T20:20:18.242Z,8.60
2023-04-15T20:22:52.935Z,8.59
2023-04-15T20:25:36.965Z,8.57
2023-04-15T20:28:22.856Z,8.56
2023-04-15T20:30:47.056Z,8.57
2023-04-15T20:33:31.220Z,8.57
2023-04-15T20:35:58.240Z,8.56
2023-04-15T20:38:21.858Z,8.55
2023-04-15T20:41:06.257Z,8.54
2023-04-15T20:43:51.105Z,8.52
2023-04-15T20:46:25.898Z,8.52
2023-04-15T20:48:54.996Z,8.50
2023-04-15T20:51:38.950Z,8.46
2023-04-15T20:54:22.689Z,8.43
2023-04-15T20:57:06.686Z,8.41
2023-04-15T20:59:42.813Z,8.40
2023-04-15T21:02:06.549Z,8.38
2023-04-15T21:04:30.435Z,8.36
2023-04-15T21:07:06.574Z,8.36
2023-04-15T21:09:30.296Z,8.34
2023-04-15T21:12:02.324Z,8.35
2023-04-15T21:14:29.051Z,8.35
2023-04-15T21:17:13.170Z,8.33
2023-04-15T21:19:54.597Z,8.32
2023-04-15T21:22:38.571Z,8.35
2023-04-15T21:25:22.639Z,8.35
2023-04-15T21:28:06.658Z,8.32
2023-04-15T21:30:50.780Z,8.31
2023-04-15T21:33:34.948Z,8.32
2023-04-15T21:36:18.740Z,8.32
2023-04-15T21:38:45.670Z,8.31
2023-04-15T21:41:22.159Z,8.29
2023-04-15T21:44:06.216Z,8.28
2023-04-15T21:46:35.987Z,8.26
2023-04-15T21:49:11.438Z,8.27
2023-04-15T21:51:36.749Z,8.25
2023-04-15T21:54:20.598Z,8.22
2023-04-15T21:57:04.639Z,8.20
2023-04-15T21:59:48.302Z,8.21
2023-04-15T22:02:25.178Z,8.22
2023-04-15T22:05:09.412Z,8.21
2023-04-15T22:07:53.255Z,8.21
2023-04-15T22:10:38.769Z,8.24
2023-04-15T22:13:22.587Z,8.24
2023-04-15T22:16:07.671Z,8.25
2023-04-15T22:18:51.479Z,8.27
2023-04-15T22:21:27.544Z,8.27
2023-04-15T22:24:38.775Z,8.26
2023-04-15T22:27:05.052Z,8.24
2023-04-15T22:29:39.685Z,8.22
2023-04-15T22:32:08.512Z,8.20
2023-04-15T22:34:34.165Z,8.18
2023-04-15T22:36:57.966Z,8.17
2023-04-15T22:39:41.955Z,8.15
2023-04-15T22:42:08.532Z,8.10
2023-04-15T22:44:34.667Z,8.05
2023-04-15T22:47:06.621Z,8.00
2023-04-15T22:49:49.170Z,7.98
2023-04-15T22:52:30.475Z,7.98
2023-04-15T22:55:01.906Z,7.97
2023-04-15T22:57:46.144Z,7.96
2023-04-15T23:00:30.029Z,7.95
2023-04-15T23:02:56.408Z,7.97
2023-04-15T23:05:40.522Z,7.98
2023-04-15T23:08:15.883Z,7.96
2023-04-15T23:10:50.253Z,7.94
2023-04-15T23:13:35.513Z,7.93
2023-04-15T23:15:59.118Z,7.96
2023-04-15T23:18:31.311Z,7.95
2023-04-15T23:21:15.295Z,7.97
2023-04-15T23:23:59.111Z,7.98
2023-04-15T23:26:43.262Z,7.98
2023-04-15T23:29:10.132Z,7.98
2023-04-15T23:31:44.026Z,7.99
2023-04-15T23:34:12.363Z,7.95
2023-04-15T23:36:47.377Z,7.91
2023-04-15T23:39:16.456Z,7.91
2023-04-15T23:41:42.551Z,7.93
2023-04-15T23:44:26.587Z,7.95
2023-04-15T23:46:52.915Z,7.97
2023-04-15T23:49:20.532Z,7.99
2023-04-15T23:51:44.804Z,8.00
2023-04-15T23:54:19.586Z,8.02
2023-04-15T23:57:03.789Z,8.01
2023-04-15T23:59:29.564Z,8.00
